Time;durP1;ratioP1;P1;durP2;ratioP2;P2;SDS_P1;SDS_P2;PMS_P1;PMS_P2;Temp;Humidity;BMP_temperature;BMP_pressure;BME280_temperature;BME280_humidity;BME280_pressure;Samples;Min_cycle;Max_cycle;Signal;HPM_P1;HPM_P2
2023/04/08 00:00:06;;;;;;;6.72;2.17;;;;;;;2.16;58.02;102297.81;10514893;28;20052;-78
2023/04/08 00:05:12;;;;;;;5.55;2.15;;;;;;;2.07;57.83;102294.34;10566497;28;20044;-77
2023/04/08 00:10:14;;;;;;;5.15;1.80;;;;;;;2.24;58.58;102295.00;10531343;28;20039;-79
2023/04/08 00:15:17;;;;;;;6.45;2.13;;;;;;;2.31;57.92;102298.69;10527919;28;20059;-78
2023/04/08 00:20:21;;;;;;;8.15;1.75;;;;;;;2.36;58.37;102301.66;10502375;28;20489;-79
2023/04/08 00:25:23;;;;;;;4.72;2.05;;;;;;;2.51;57.84;102297.09;10552583;28;20044;-78
2023/04/08 00:30:28;;;;;;;6.93;2.10;;;;;;;2.46;57.90;102304.13;10506313;28;20052;-79
2023/04/08 00:35:31;;;;;;;6.22;2.17;;;;;;;2.44;58.04;102296.16;10578568;28;20067;-79
2023/04/08 00:40:34;;;;;;;5.40;1.70;;;;;;;2.56;57.50;102304.66;10557451;28;20047;-78
2023/04/08 00:45:37;;;;;;;4.70;2.10;;;;;;;2.51;57.62;102302.50;10555425;28;20041;-80
2023/04/08 00:50:42;;;;;;;5.40;2.25;;;;;;;2.42;57.19;102299.03;10539071;28;20048;-79
2023/04/08 00:55:44;;;;;;;4.60;2.15;;;;;;;2.47;57.71;102298.50;10537421;28;20044;-79
2023/04/08 01:00:54;;;;;;;7.50;2.30;;;;;;;2.32;57.72;102301.19;10557502;28;20040;-77
2023/04/08 01:06:31;;;;;;;3.85;2.10;;;;;;;2.46;57.91;102295.97;10522191;28;20528;-79
2023/04/08 01:11:34;;;;;;;4.90;2.40;;;;;;;2.36;57.82;102291.66;10482221;28;20400;-79
2023/04/08 01:16:38;;;;;;;10.93;2.45;;;;;;;2.10;58.52;102294.00;10498603;28;20048;-79
2023/04/08 01:21:40;;;;;;;4.35;2.55;;;;;;;1.97;58.41;102283.78;10522972;28;20546;-79
2023/04/08 01:26:44;;;;;;;6.10;2.80;;;;;;;1.81;58.45;102289.34;10528499;28;20052;-79
2023/04/08 01:31:46;;;;;;;6.13;2.25;;;;;;;1.65;59.15;102289.50;10529374;28;20040;-79
2023/04/08 01:36:50;;;;;;;5.72;2.00;;;;;;;1.94;59.70;102286.88;10524488;28;20056;-79
2023/04/08 01:41:54;;;;;;;7.05;2.80;;;;;;;2.08;59.70;102280.66;10497962;28;20076;-79
2023/04/08 01:46:56;;;;;;;4.43;2.30;;;;;;;2.12;59.59;102281.13;10523724;28;20035;-78
2023/04/08 01:52:00;;;;;;;8.05;2.70;;;;;;;2.08;59.27;102275.22;10508012;28;20053;-78
2023/04/08 01:57:07;;;;;;;5.13;2.55;;;;;;;2.10;59.60;102278.59;10500570;28;20052;-78
2023/04/08 02:02:11;;;;;;;7.25;2.75;;;;;;;2.04;59.60;102273.06;10491391;28;20055;-79
2023/04/08 02:07:14;;;;;;;5.47;2.42;;;;;;;2.02;60.24;102269.69;10517453;28;20041;-78
2023/04/08 02:12:17;;;;;;;4.07;2.17;;;;;;;2.00;59.73;102267.19;10521765;28;20052;-79
2023/04/08 02:17:44;;;;;;;4.80;2.72;;;;;;;2.04;59.80;102273.06;10532665;28;20040;-77
2023/04/08 02:23:03;;;;;;;;;;;;;;;2.08;59.74;102263.53;10518880;28;20036;-78
2023/04/08 02:28:10;;;;;;;7.85;2.35;;;;;;;1.98;60.09;102269.22;10553431;28;19920;-79
2023/04/08 02:33:13;;;;;;;9.60;2.63;;;;;;;1.97;60.50;102264.84;10512450;28;20044;-79
2023/04/08 02:38:15;;;;;;;5.85;2.97;;;;;;;1.99;60.26;102262.78;10512213;28;20048;-78
2023/04/08 02:43:19;;;;;;;5.55;3.40;;;;;;;1.70;60.71;102268.13;10533731;28;20040;-80
2023/04/08 02:48:21;;;;;;;6.97;2.65;;;;;;;1.64;61.52;102269.72;10518773;28;20052;-79
2023/04/08 02:53:24;;;;;;;5.40;2.88;;;;;;;1.47;61.30;102260.91;10516201;28;20048;-79
2023/04/08 02:58:26;;;;;;;6.78;3.20;;;;;;;1.56;61.37;102252.69;10502084;28;20040;-79
2023/04/08 03:03:30;;;;;;;6.95;3.03;;;;;;;1.38;61.58;102264.66;10527902;28;20044;-79
2023/04/08 03:08:32;;;;;;;7.03;2.83;;;;;;;1.28;61.95;102261.38;10534280;28;20491;-78
2023/04/08 03:13:35;;;;;;;5.13;2.38;;;;;;;1.47;62.21;102254.66;10520688;28;20032;-79
2023/04/08 03:18:37;;;;;;;9.63;3.22;;;;;;;1.61;61.86;102255.72;10515937;28;20044;-79
2023/04/08 03:23:39;;;;;;;7.55;3.25;;;;;;;1.68;61.53;102251.25;10513797;28;20041;-77
2023/04/08 03:28:42;;;;;;;8.02;3.15;;;;;;;1.58;61.71;102254.22;10537259;28;20043;-78
2023/04/08 03:33:44;;;;;;;11.00;3.17;;;;;;;1.72;61.90;102257.97;10563512;28;20045;-77
2023/04/08 03:38:46;;;;;;;6.85;3.20;;;;;;;2.41;61.01;102258.59;10532252;28;20412;-77
2023/04/08 03:43:48;;;;;;;3.88;2.70;;;;;;;3.02;58.96;102256.44;10548560;28;20040;-79
2023/04/08 03:48:51;;;;;;;5.50;2.92;;;;;;;3.73;57.51;102259.22;10530437;28;20032;-77
2023/04/08 03:53:53;;;;;;;5.38;3.10;;;;;;;4.07;55.44;102261.16;10521333;28;20051;-79
2023/04/08 03:58:55;;;;;;;7.22;3.70;;;;;;;4.50;55.08;102254.50;10550196;28;20040;-78
2023/04/08 04:03:58;;;;;;;8.50;3.72;;;;;;;5.04;52.98;102259.13;10519993;28;20407;-79
2023/04/08 04:09:00;;;;;;;6.72;3.40;;;;;;;5.28;52.06;102259.59;10520121;28;20473;-80
2023/04/08 04:14:02;;;;;;;7.75;4.05;;;;;;;5.36;52.32;102257.50;10508469;28;20032;-78
2023/04/08 04:19:04;;;;;;;7.10;3.70;;;;;;;6.07;50.25;102259.63;10542212;28;20531;-79
2023/04/08 04:24:07;;;;;;;7.38;4.40;;;;;;;5.79;50.41;102259.03;10541684;28;20044;-79
2023/04/08 04:29:09;;;;;;;10.38;3.60;;;;;;;6.25;49.14;102248.94;10549424;28;20098;-79
2023/04/08 04:34:11;;;;;;;10.38;4.65;;;;;;;6.35;48.96;102260.22;10547804;28;20423;-79
2023/04/08 04:39:13;;;;;;;10.70;3.83;;;;;;;6.80;48.20;102254.00;10535019;28;20055;-79
2023/04/08 04:44:15;;;;;;;6.97;3.95;;;;;;;7.29;47.85;102253.34;10529466;28;20435;-79
2023/04/08 04:49:17;;;;;;;11.02;4.38;;;;;;;7.48;47.52;102252.34;10536324;28;20045;-78
2023/04/08 04:54:20;;;;;;;9.55;4.38;;;;;;;7.83;46.71;102258.16;10526449;28;20044;-79
2023/04/08 04:59:22;;;;;;;10.13;3.97;;;;;;;7.97;45.39;102245.19;10528865;28;20036;-79
2023/04/08 05:04:24;;;;;;;9.40;3.67;;;;;;;8.10;45.80;102245.06;10503767;28;20433;-78
2023/04/08 05:09:28;;;;;;;9.98;3.67;;;;;;;8.72;44.47;102245.06;10500556;28;20325;-79
2023/04/08 05:14:30;;;;;;;9.25;4.30;;;;;;;8.99;43.64;102240.06;10510141;28;20048;-78
2023/04/08 05:19:32;;;;;;;9.32;3.88;;;;;;;8.93;43.29;102241.00;10517252;28;20037;-79
2023/04/08 05:24:35;;;;;;;9.45;4.05;;;;;;;9.09;43.12;102236.78;10530115;28;20071;-78
2023/04/08 05:29:37;;;;;;;6.90;3.65;;;;;;;9.10;42.92;102239.28;10515807;28;20048;-77
2023/04/08 05:34:39;;;;;;;11.70;4.20;;;;;;;9.79;41.67;102248.75;10525123;28;20518;-78
2023/04/08 05:39:41;;;;;;;9.93;4.03;;;;;;;10.03;41.24;102232.31;10534824;28;20053;-79
2023/04/08 05:44:44;;;;;;;9.85;4.20;;;;;;;10.36;40.76;102231.72;10514885;28;20040;-80
2023/04/08 05:49:46;;;;;;;8.40;4.03;;;;;;;10.83;40.06;102229.72;10514072;28;20519;-77
2023/04/08 05:54:48;;;;;;;12.20;5.60;;;;;;;10.82;40.41;102241.78;10515885;28;20051;-79
2023/04/08 05:59:52;;;;;;;9.32;4.80;;;;;;;11.25;39.38;102238.50;10566804;28;20040;-78
2023/04/08 06:04:54;;;;;;;9.57;4.32;;;;;;;10.83;39.11;102243.44;10502288;28;20550;-79
2023/04/08 06:09:56;;;;;;;14.93;3.50;;;;;;;10.70;39.50;102239.06;10504398;28;20045;-79
2023/04/08 06:15:00;;;;;;;10.07;3.40;;;;;;;10.98;38.81;102235.53;10493181;28;20054;-79
2023/04/08 06:20:03;;;;;;;9.93;3.47;;;;;;;10.50;40.00;102239.47;10512270;28;20043;-79
2023/04/08 06:25:05;;;;;;;8.98;3.28;;;;;;;11.12;38.29;102236.91;10516628;28;20040;-78
2023/04/08 06:30:08;;;;;;;13.85;3.55;;;;;;;11.86;37.82;102227.75;10522928;28;20044;-78
2023/04/08 06:35:13;;;;;;;10.50;3.17;;;;;;;12.07;37.17;102232.47;10528172;28;20052;-78
2023/04/08 06:40:15;;;;;;;11.13;3.90;;;;;;;12.08;36.85;102231.38;10493873;28;20060;-79
2023/04/08 06:45:17;;;;;;;10.98;3.55;;;;;;;12.32;37.26;102232.88;10507709;28;20519;-78
2023/04/08 06:50:19;;;;;;;15.32;3.75;;;;;;;12.41;36.93;102229.66;10506784;28;20403;-78
2023/04/08 06:55:22;;;;;;;10.38;3.60;;;;;;;13.22;36.14;102233.44;10532374;28;20036;-79
2023/04/08 07:00:24;;;;;;;18.35;4.20;;;;;;;13.33;35.90;102226.91;10522784;28;20036;-78
2023/04/08 07:05:26;;;;;;;13.10;4.40;;;;;;;13.88;35.12;102231.22;10554131;28;20394;-80
2023/04/08 07:10:29;;;;;;;11.23;4.15;;;;;;;14.25;34.71;102231.25;10515038;28;20051;-80
2023/04/08 07:15:32;;;;;;;16.65;4.22;;;;;;;13.64;34.90;102229.94;10496528;28;20049;-77
2023/04/08 07:20:37;;;;;;;6.90;2.70;;;;;;;13.41;35.10;102226.44;10534330;28;20055;-77
2023/04/08 07:25:39;;;;;;;8.10;2.40;;;;;;;12.60;36.10;102233.75;10509423;28;20051;-79
2023/04/08 07:30:42;;;;;;;7.72;2.88;;;;;;;13.40;34.92;102223.94;10512011;28;20531;-79
2023/04/08 07:35:44;;;;;;;9.23;2.50;;;;;;;14.11;34.09;102228.09;10556920;28;20050;-78
2023/04/08 07:40:47;;;;;;;9.80;3.28;;;;;;;14.47;33.82;102226.41;10540998;28;20056;-78
2023/04/08 07:45:50;;;;;;;7.38;3.10;;;;;;;14.42;33.55;102225.53;10535746;28;20052;-85
2023/04/08 07:50:52;;;;;;;8.65;3.13;;;;;;;14.15;33.63;102226.47;10520182;28;20051;-79
2023/04/08 07:55:54;;;;;;;7.03;2.22;;;;;;;14.78;32.92;102219.09;10505055;28;20042;-78
2023/04/08 08:00:56;;;;;;;12.30;2.78;;;;;;;14.84;32.76;102217.16;10500575;28;20037;-77
2023/04/08 08:05:58;;;;;;;10.88;2.60;;;;;;;15.90;31.65;102222.03;10524994;28;20037;-78
2023/04/08 08:11:00;;;;;;;9.38;2.65;;;;;;;14.82;32.28;102222.13;10525586;28;20036;-76
2023/04/08 08:16:02;;;;;;;13.52;2.60;;;;;;;15.46;31.53;102221.75;10514436;28;20238;-77
2023/04/08 08:21:05;;;;;;;8.70;2.47;;;;;;;16.12;31.04;102220.88;10503454;28;20048;-79
2023/04/08 08:26:09;;;;;;;6.72;2.17;;;;;;;16.21;30.70;102217.28;10522179;28;20044;-76
2023/04/08 08:31:11;;;;;;;4.60;2.03;;;;;;;16.18;29.87;102208.69;10521551;28;20408;-77
2023/04/08 08:36:13;;;;;;;13.85;2.70;;;;;;;16.31;30.42;102201.72;10539935;28;20715;-75
2023/04/08 08:41:15;;;;;;;4.32;2.00;;;;;;;15.25;31.23;102207.03;10543901;28;20054;-77
2023/04/08 08:46:18;;;;;;;3.72;1.25;;;;;;;15.60;30.37;102208.19;10512507;28;20454;-77
2023/04/08 08:51:20;;;;;;;3.00;1.77;;;;;;;15.67;29.68;102209.59;10487006;28;20067;-77
2023/04/08 08:56:22;;;;;;;4.70;2.75;;;;;;;15.32;30.15;102206.78;10512504;28;20036;-77
2023/04/08 09:01:42;;;;;;;1.40;1.10;;;;;;;16.07;29.27;102193.22;10490955;28;20400;-78
2023/04/08 09:06:46;;;;;;;5.18;1.40;;;;;;;16.12;29.31;102202.31;10478367;28;20049;-76
2023/04/08 09:11:48;;;;;;;3.13;1.55;;;;;;;15.77;29.35;102197.66;10485829;28;20041;-76
2023/04/08 09:16:51;;;;;;;2.95;1.48;;;;;;;14.35;31.26;102195.38;10485877;28;20041;-77
2023/04/08 09:22:07;;;;;;;3.80;1.65;;;;;;;13.60;32.83;102187.44;10469948;28;20048;-77
2023/04/08 09:27:10;;;;;;;2.80;1.80;;;;;;;12.45;33.80;102197.78;10486960;28;20052;-78
2023/04/08 09:32:12;;;;;;;4.75;1.90;;;;;;;11.71;35.79;102190.63;10465172;28;20037;-77
2023/04/08 09:37:14;;;;;;;3.08;1.75;;;;;;;11.29;36.16;102183.88;10468743;28;20143;-76
2023/04/08 09:42:18;;;;;;;3.47;1.30;;;;;;;11.09;36.34;102173.34;10487564;28;20049;-77
2023/04/08 09:47:24;;;;;;;6.82;2.22;;;;;;;11.07;36.63;102176.34;10468726;28;20085;-76
2023/04/08 09:52:33;;;;;;;3.67;1.20;;;;;;;11.18;36.42;102169.97;10469029;28;20072;-77
2023/04/08 09:57:54;;;;;;;6.35;1.75;;;;;;;11.13;36.41;102169.88;10468567;28;20041;-77
2023/04/08 10:03:11;;;;;;;5.78;1.25;;;;;;;10.92;36.97;102165.06;10486476;28;20048;-76
2023/04/08 10:08:14;;;;;;;2.22;1.30;;;;;;;11.11;36.55;102161.06;10486082;28;20420;-76
2023/04/08 10:13:16;;;;;;;6.20;1.30;;;;;;;11.26;36.84;102168.72;10468418;28;20053;-76
2023/04/08 10:18:19;;;;;;;2.40;0.93;;;;;;;11.08;35.79;102166.19;10503898;28;20480;-78
2023/04/08 10:23:54;;;;;;;3.47;1.33;;;;;;;11.02;36.51;102164.44;10527447;28;20048;-77
2023/04/08 10:29:16;;;;;;;3.13;1.48;;;;;;;10.89;36.49;102165.56;10518236;28;20048;-76
2023/04/08 10:34:21;;;;;;;3.53;1.27;;;;;;;10.83;36.88;102150.09;10505311;28;20049;-76
2023/04/08 10:39:24;;;;;;;3.17;1.30;;;;;;;10.79;36.67;102148.91;10494771;28;20052;-76
2023/04/08 10:44:26;;;;;;;2.22;1.27;;;;;;;10.87;36.62;102148.50;10475828;28;20052;-77
2023/04/08 10:49:33;;;;;;;2.50;0.95;;;;;;;11.09;36.90;102148.63;10475692;28;20052;-76
2023/04/08 10:54:37;;;;;;;7.57;1.73;;;;;;;11.27;37.06;102142.88;10475297;28;20068;-77
2023/04/08 10:59:39;;;;;;;6.07;2.03;;;;;;;11.17;36.20;102140.81;10475059;28;20435;-77
2023/04/08 11:04:42;;;;;;;2.45;1.33;;;;;;;11.05;36.79;102136.47;10492824;28;20056;-76
2023/04/08 11:09:44;;;;;;;4.68;1.30;;;;;;;10.90;36.52;102131.53;10494581;28;20048;-77
2023/04/08 11:14:47;;;;;;;4.03;1.70;;;;;;;10.87;36.57;102132.03;10535298;28;20570;-78
2023/04/08 11:19:51;;;;;;;2.75;1.20;;;;;;;10.78;36.77;102130.78;10500576;28;20040;-78
2023/04/08 11:24:55;;;;;;;1.75;1.17;;;;;;;10.96;36.11;102133.31;10537574;28;20055;-77
2023/04/08 11:29:58;;;;;;;2.00;1.27;;;;;;;11.08;36.86;102130.47;10526651;28;20046;-76
2023/04/08 11:35:01;;;;;;;3.65;1.65;;;;;;;11.09;36.15;102121.97;10533134;28;20048;-76
2023/04/08 11:40:10;;;;;;;2.60;1.40;;;;;;;11.20;36.72;102112.00;10564660;28;20404;-76
2023/04/08 11:45:15;;;;;;;2.67;1.45;;;;;;;11.20;37.04;102119.41;10574773;28;20059;-76
2023/04/08 11:50:25;;;;;;;1.52;0.98;;;;;;;11.10;36.26;102115.41;10573514;28;20040;-77
2023/04/08 11:55:29;;;;;;;4.75;1.48;;;;;;;11.20;36.46;102108.44;10556957;28;20055;-77
2023/04/08 12:00:32;;;;;;;4.13;1.63;;;;;;;11.19;36.83;102104.84;10505310;28;20045;-78
2023/04/08 12:05:35;;;;;;;5.78;1.58;;;;;;;11.27;36.14;102106.34;10508310;28;20481;-77
2023/04/08 12:10:37;;;;;;;5.43;1.70;;;;;;;11.26;35.86;102100.00;10513754;28;20044;-77
2023/04/08 12:15:44;;;;;;;4.00;1.40;;;;;;;10.96;35.51;102103.09;10514416;28;20518;-78
2023/04/08 12:20:46;;;;;;;5.78;1.52;;;;;;;10.83;36.42;102095.16;10531522;28;20049;-77
2023/04/08 12:25:49;;;;;;;3.50;1.73;;;;;;;10.79;35.93;102094.00;10531455;28;20045;-78
2023/04/08 12:30:54;;;;;;;2.05;1.33;;;;;;;10.73;36.34;102089.47;10506333;28;20416;-77
2023/04/08 12:36:00;;;;;;;3.85;1.73;;;;;;;10.95;36.84;102084.13;10472036;28;20056;-76
2023/04/08 12:41:02;;;;;;;5.32;1.70;;;;;;;11.00;36.53;102076.78;10490102;28;20049;-77
2023/04/08 12:46:07;;;;;;;6.00;1.48;;;;;;;11.18;36.12;102071.03;10488931;28;20052;-77
2023/04/08 12:51:09;;;;;;;3.95;1.85;;;;;;;11.40;35.93;102070.28;10487464;28;20045;-76
2023/04/08 12:56:12;;;;;;;19.13;4.03;;;;;;;11.40;35.74;102067.53;10470799;28;20047;-76
2023/04/08 13:01:18;;;;;;;6.27;2.37;;;;;;;11.39;35.85;102063.13;10483300;28;20044;-77
2023/04/08 13:06:21;;;;;;;9.27;2.35;;;;;;;11.29;36.04;102069.31;10468955;28;20504;-76
2023/04/08 13:11:23;;;;;;;8.25;2.25;;;;;;;11.27;36.41;102056.88;10487686;28;20134;-76
2023/04/08 13:16:29;;;;;;;6.25;2.17;;;;;;;11.27;35.65;102057.69;10487566;28;20048;-77
2023/04/08 13:21:32;;;;;;;3.38;1.73;;;;;;;11.37;36.52;102046.03;10469763;28;20051;-76
2023/04/08 13:26:35;;;;;;;5.25;1.90;;;;;;;11.17;35.90;102047.41;10487527;28;20070;-78
2023/04/08 13:31:39;;;;;;;7.40;1.90;;;;;;;11.11;35.59;102045.66;10486954;28;20048;-76
2023/04/08 13:36:42;;;;;;;7.18;2.08;;;;;;;10.99;36.38;102044.09;10468474;28;20068;-76
2023/04/08 13:41:45;;;;;;;4.07;2.47;;;;;;;11.19;37.10;102044.41;10487375;28;20041;-76
2023/04/08 13:46:47;;;;;;;4.18;1.73;;;;;;;11.29;36.17;102038.25;10494667;28;20055;-76
2023/04/08 13:51:49;;;;;;;4.72;2.05;;;;;;;11.20;36.88;102031.50;10493947;28;20055;-76
2023/04/08 13:56:51;;;;;;;4.38;1.63;;;;;;;11.30;36.41;102039.91;10527543;28;20044;-77
2023/04/08 14:01:54;;;;;;;5.65;2.72;;;;;;;11.16;36.53;102036.66;10506401;28;20053;-77
2023/04/08 14:06:57;;;;;;;8.30;1.60;;;;;;;11.12;36.00;102028.09;10509209;28;20044;-76
2023/04/08 14:11:59;;;;;;;6.75;2.10;;;;;;;11.03;36.38;102023.25;10510036;28;20388;-76
2023/04/08 14:17:01;;;;;;;5.28;2.78;;;;;;;10.91;36.91;102020.59;10527872;28;20055;-76
2023/04/08 14:22:03;;;;;;;7.63;2.53;;;;;;;11.04;38.41;102025.75;10527220;28;20033;-77
2023/04/08 14:27:05;;;;;;;5.13;2.78;;;;;;;11.33;38.21;102023.75;10527685;28;20040;-77
2023/04/08 14:32:08;;;;;;;6.60;2.15;;;;;;;11.20;37.87;102023.25;10528028;28;20045;-76
2023/04/08 14:37:11;;;;;;;24.25;4.88;;;;;;;11.22;36.70;102023.84;10508727;28;20055;-76
2023/04/08 14:42:15;;;;;;;9.43;2.08;;;;;;;11.02;37.46;102027.94;10506526;28;20048;-77
2023/04/08 14:47:17;;;;;;;3.88;1.08;;;;;;;10.68;37.60;102029.00;10483739;28;20044;-77
2023/04/08 14:52:20;;;;;;;7.13;1.60;;;;;;;10.31;38.66;102032.16;10484921;28;20048;-77
2023/04/08 14:57:22;;;;;;;5.35;1.38;;;;;;;10.07;38.99;102027.84;10466779;28;20041;-77
2023/04/08 15:02:24;;;;;;;7.88;1.38;;;;;;;9.85;38.75;102031.22;10484576;28;20497;-77
2023/04/08 15:07:26;;;;;;;3.80;1.70;;;;;;;9.75;39.83;102028.28;10484721;28;20041;-77
2023/04/08 15:12:29;;;;;;;4.85;1.60;;;;;;;9.65;39.79;102017.06;10470566;28;20045;-77
2023/04/08 15:17:32;;;;;;;3.08;1.35;;;;;;;9.54;39.67;102020.66;10479574;28;20423;-77
2023/04/08 15:22:35;;;;;;;5.32;1.23;;;;;;;9.52;39.76;102017.34;10515476;28;20048;-77
2023/04/08 15:27:37;;;;;;;11.18;1.58;;;;;;;9.51;39.55;102015.66;10508745;28;20551;-76
2023/04/08 15:32:40;;;;;;;6.05;1.38;;;;;;;9.42;39.84;102022.59;10498590;28;20048;-77
2023/04/08 15:37:43;;;;;;;4.68;1.40;;;;;;;9.32;40.38;102024.03;10515452;28;20163;-78
2023/04/08 15:42:45;;;;;;;3.63;1.30;;;;;;;9.17;39.81;102031.88;10514720;28;20045;-77
2023/04/08 15:47:47;;;;;;;5.22;1.58;;;;;;;9.06;40.59;102028.09;10514689;28;20054;-77
2023/04/08 15:52:49;;;;;;;3.80;1.15;;;;;;;8.97;40.28;102031.41;10515259;28;20087;-76
2023/04/08 15:57:55;;;;;;;3.95;2.28;;;;;;;8.88;40.75;102036.41;10530119;28;20055;-78
2023/04/08 16:02:57;;;;;;;6.43;1.60;;;;;;;8.98;40.92;102033.06;10513878;28;20055;-78
2023/04/08 16:07:59;;;;;;;12.13;2.53;;;;;;;8.83;41.57;102043.63;10498480;28;20045;-78
2023/04/08 16:13:01;;;;;;;4.07;1.40;;;;;;;8.64;41.02;102040.97;10532557;28;20048;-77
2023/04/08 16:18:05;;;;;;;8.30;2.20;;;;;;;8.49;41.74;102042.47;10532173;28;20041;-76
2023/04/08 16:23:07;;;;;;;2.60;1.85;;;;;;;8.36;41.41;102049.00;10514245;28;20562;-77
2023/04/08 16:28:09;;;;;;;4.93;1.50;;;;;;;8.10;42.39;102048.22;10532149;28;20040;-77
2023/04/08 16:33:12;;;;;;;3.40;1.63;;;;;;;7.97;43.10;102059.31;10514817;28;20052;-78
2023/04/08 16:38:15;;;;;;;7.78;2.10;;;;;;;7.91;43.23;102065.72;10513898;28;20060;-77
2023/04/08 16:43:17;;;;;;;3.88;2.03;;;;;;;7.91;42.75;102071.19;10513613;28;20515;-78
2023/04/08 16:48:19;;;;;;;6.25;1.83;;;;;;;7.66;44.45;102070.44;10532296;28;20397;-78
2023/04/08 16:53:21;;;;;;;3.42;1.55;;;;;;;7.52;44.91;102084.22;10496896;28;20045;-78
2023/04/08 16:58:23;;;;;;;3.15;1.50;;;;;;;7.52;45.27;102077.94;10466905;28;20047;-77
2023/04/08 17:03:26;;;;;;;5.57;1.20;;;;;;;7.29;45.24;102089.50;10500781;28;20514;-77
2023/04/08 17:08:28;;;;;;;3.53;1.70;;;;;;;7.09;45.52;102086.91;10530552;28;20094;-78
2023/04/08 17:13:30;;;;;;;3.50;1.58;;;;;;;6.92;46.03;102093.97;10511756;28;20044;-76
2023/04/08 17:18:33;;;;;;;5.25;1.42;;;;;;;6.84;46.00;102097.81;10478856;28;20037;-79
2023/04/08 17:23:35;;;;;;;2.75;1.10;;;;;;;6.85;46.94;102088.59;10529096;28;20137;-78
2023/04/08 17:28:38;;;;;;;9.32;1.80;;;;;;;6.87;46.42;102094.66;10477782;28;20047;-78
2023/04/08 17:33:40;;;;;;;10.82;2.03;;;;;;;6.82;46.25;102101.84;10486056;28;20472;-77
2023/04/08 17:38:42;;;;;;;9.23;2.08;;;;;;;6.67;46.46;102091.22;10487155;28;20057;-78
2023/04/08 17:43:45;;;;;;;4.55;2.72;;;;;;;6.51;46.85;102098.03;10485417;28;20319;-77
2023/04/08 17:48:47;;;;;;;2.45;1.45;;;;;;;6.41;47.58;102103.09;10486539;28;20047;-77
2023/04/08 17:53:49;;;;;;;4.00;1.80;;;;;;;6.38;47.75;102098.09;10468799;28;20434;-77
2023/04/08 17:58:51;;;;;;;4.05;1.60;;;;;;;6.53;47.04;102106.00;10469400;28;20059;-77
2023/04/08 18:03:54;;;;;;;3.28;1.60;;;;;;;6.36;47.71;102094.75;10528359;28;20051;-77
2023/04/08 18:08:57;;;;;;;5.88;2.10;;;;;;;6.32;47.97;102104.44;10510124;28;20519;-78
2023/04/08 18:13:59;;;;;;;6.18;2.00;;;;;;;6.33;47.95;102101.47;10509814;28;20044;-76
2023/04/08 18:19:01;;;;;;;7.88;3.20;;;;;;;6.42;47.54;102096.63;10527343;28;20041;-76
2023/04/08 18:24:04;;;;;;;8.88;3.08;;;;;;;6.44;48.53;102107.31;10492967;28;20039;-78
2023/04/08 18:29:06;;;;;;;8.70;2.42;;;;;;;6.29;48.06;102105.72;10527410;28;20041;-78
2023/04/08 18:34:08;;;;;;;7.07;2.33;;;;;;;6.19;48.45;102101.75;10527247;28;20051;-77
2023/04/08 18:39:11;;;;;;;4.30;2.50;;;;;;;6.00;48.94;102108.97;10509917;28;20415;-77
2023/04/08 18:44:13;;;;;;;7.75;3.00;;;;;;;6.01;48.84;102092.41;10527347;28;20040;-77
2023/04/08 18:49:16;;;;;;;6.35;2.83;;;;;;;5.89;48.76;102098.69;10515592;28;20404;-77
2023/04/08 18:54:18;;;;;;;5.78;2.60;;;;;;;5.81;48.71;102099.78;10534742;28;20056;-78
2023/04/08 18:59:20;;;;;;;11.88;3.00;;;;;;;5.79;49.06;102092.88;10534707;28;20043;-76
2023/04/08 19:04:23;;;;;;;6.05;2.67;;;;;;;5.90;48.94;102097.66;10515936;28;20447;-76
2023/04/08 19:09:25;;;;;;;7.00;2.97;;;;;;;5.91;49.70;102097.47;10516286;28;20045;-78
2023/04/08 19:14:27;;;;;;;7.65;2.92;;;;;;;5.99;49.82;102096.38;10516405;28;20056;-77
2023/04/08 19:19:31;;;;;;;9.25;2.70;;;;;;;5.74;49.89;102091.63;10533405;28;20063;-78
2023/04/08 19:24:33;;;;;;;16.35;3.97;;;;;;;5.52;50.12;102092.91;10533343;28;20051;-78
2023/04/08 19:29:36;;;;;;;7.55;3.38;;;;;;;5.37;51.21;102095.03;10520051;28;20540;-78
2023/04/08 19:34:39;;;;;;;9.93;2.90;;;;;;;5.04;51.46;102093.19;10491458;28;20045;-79
2023/04/08 19:39:41;;;;;;;8.05;3.30;;;;;;;4.87;52.29;102093.78;10491300;28;20139;-77
2023/04/08 19:44:46;;;;;;;5.18;3.20;;;;;;;4.72;52.01;102092.09;10490360;28;20045;-77
2023/04/08 19:49:48;;;;;;;11.70;3.55;;;;;;;4.65;52.67;102084.97;10474336;28;20277;-78
2023/04/08 19:54:51;;;;;;;8.27;3.25;;;;;;;4.63;53.60;102085.16;10491722;28;20048;-78
2023/04/08 19:59:55;;;;;;;9.38;3.17;;;;;;;4.45;52.78;102084.91;10490591;28;20045;-76
2023/04/08 20:04:58;;;;;;;5.55;3.00;;;;;;;4.40;53.56;102082.81;10472942;28;20493;-78
2023/04/08 20:10:00;;;;;;;5.55;2.90;;;;;;;4.46;53.88;102081.16;10472454;28;20045;-78
2023/04/08 20:15:06;;;;;;;6.70;2.80;;;;;;;4.54;53.78;102076.38;10473141;28;20048;-77
2023/04/08 20:20:14;;;;;;;9.30;2.85;;;;;;;4.39;52.98;102077.59;10473811;28;20041;-77
2023/04/08 20:25:17;;;;;;;6.93;2.42;;;;;;;4.29;53.72;102080.69;10472292;28;20041;-77
2023/04/08 20:30:19;;;;;;;7.65;2.65;;;;;;;4.08;53.98;102076.22;10496335;28;20066;-76
2023/04/08 20:35:26;;;;;;;8.68;3.13;;;;;;;3.84;53.81;102083.03;10512870;28;20056;-79
2023/04/08 20:40:28;;;;;;;7.75;3.40;;;;;;;3.70;54.56;102086.72;10496845;28;20076;-78
2023/04/08 20:45:31;;;;;;;5.70;2.55;;;;;;;3.67;54.58;102083.56;10512761;28;20315;-78
2023/04/08 20:50:33;;;;;;;9.80;2.80;;;;;;;3.76;55.36;102091.31;10530366;28;20044;-77
2023/04/08 20:55:35;;;;;;;7.50;3.03;;;;;;;3.89;55.48;102096.00;10495860;28;20059;-77
2023/04/08 21:00:38;;;;;;;7.50;2.30;;;;;;;3.83;54.80;102094.09;10493703;28;20044;-78
2023/04/08 21:05:40;;;;;;;5.57;2.90;;;;;;;3.82;54.94;102101.41;10495267;28;20048;-76
2023/04/08 21:10:42;;;;;;;5.75;2.40;;;;;;;3.60;54.96;102097.06;10510932;28;20044;-78
2023/04/08 21:15:45;;;;;;;5.63;2.70;;;;;;;3.72;54.93;102100.09;10528140;28;20040;-78
2023/04/08 21:20:49;;;;;;;5.78;2.53;;;;;;;3.61;55.04;102104.19;10529126;28;20051;-78
2023/04/08 21:25:51;;;;;;;4.78;2.22;;;;;;;3.49;55.52;102108.50;10527544;28;20049;-77
2023/04/08 21:30:53;;;;;;;7.68;2.60;;;;;;;3.39;55.67;102106.13;10505603;28;20519;-76
2023/04/08 21:35:56;;;;;;;4.95;2.20;;;;;;;3.19;55.68;102100.56;10528209;28;20051;-76
2023/04/08 21:40:59;;;;;;;5.35;2.97;;;;;;;3.12;56.33;102099.66;10529062;28;20048;-77
2023/04/08 21:46:01;;;;;;;4.75;2.42;;;;;;;3.13;56.76;102095.09;10506919;28;20048;-78
2023/04/08 21:51:05;;;;;;;3.00;1.75;;;;;;;3.25;56.78;102102.47;10528896;28;20040;-78
2023/04/08 21:56:07;;;;;;;8.48;2.85;;;;;;;3.19;57.13;102113.28;10494404;28;20059;-77
2023/04/08 22:01:10;;;;;;;4.63;2.25;;;;;;;3.07;57.05;102110.25;10467158;28;20052;-77
2023/04/08 22:06:13;;;;;;;4.03;2.58;;;;;;;2.97;57.40;102110.59;10468214;28;20045;-77
2023/04/08 22:11:15;;;;;;;7.20;3.28;;;;;;;2.91;57.61;102099.69;10489845;28;20040;-77
2023/04/08 22:16:17;;;;;;;6.65;2.40;;;;;;;2.99;57.87;102103.09;10486479;28;20042;-76
2023/04/08 22:21:19;;;;;;;9.38;2.42;;;;;;;3.08;57.66;102098.38;10473408;28;20098;-77
2023/04/08 22:26:22;;;;;;;5.32;2.70;;;;;;;3.09;57.88;102107.34;10509772;28;20044;-76
2023/04/08 22:31:24;;;;;;;8.43;4.35;;;;;;;2.90;58.63;102111.56;10509722;28;20040;-76
2023/04/08 22:36:26;;;;;;;8.10;2.90;;;;;;;2.88;59.27;102110.91;10506685;28;20051;-78
2023/04/08 22:41:28;;;;;;;5.93;2.70;;;;;;;2.82;58.52;102114.41;10517433;28;20045;-75
2023/04/08 22:46:32;;;;;;;4.43;2.47;;;;;;;2.61;59.48;102105.25;10494922;28;20047;-78
2023/04/08 22:51:37;;;;;;;6.07;2.53;;;;;;;2.62;60.00;102115.06;10489702;28;20037;-77
2023/04/08 22:56:39;;;;;;;5.85;2.20;;;;;;;2.55;59.74;102113.28;10475122;28;20124;-77
2023/04/08 23:01:42;;;;;;;4.38;2.65;;;;;;;2.61;59.65;102107.13;10492810;28;20052;-76
2023/04/08 23:06:45;;;;;;;3.38;2.00;;;;;;;2.64;59.69;102098.59;10475109;28;20057;-76
2023/04/08 23:11:48;;;;;;;9.32;2.72;;;;;;;2.69;59.50;102102.41;10492766;28;20063;-77
2023/04/08 23:16:50;;;;;;;4.70;2.20;;;;;;;2.60;59.85;102100.00;10492644;28;20048;-77
2023/04/08 23:21:52;;;;;;;3.97;2.20;;;;;;;2.60;59.63;102100.00;10492447;28;20041;-76